sensor_id;sensor_type;location;lat;lon;timestamp;temperature;humidity
54190;DHT22;40340;53.208;6.582;2022-08-19T00:00:44;17.10;99.90
54190;DHT22;40340;53.208;6.582;2022-08-19T00:03:10;17.00;99.90
54190;DHT22;40340;53.208;6.582;2022-08-19T00:05:35;17.00;99.90
54190;DHT22;40340;53.208;6.582;2022-08-19T00:08:01;17.10;99.90
54190;DHT22;40340;53.208;6.582;2022-08-19T00:10:27;17.00;99.90
54190;DHT22;40340;53.208;6.582;2022-08-19T00:12:53;17.00;99.90
54190;DHT22;40340;53.208;6.582;2022-08-19T00:15:20;17.00;99.90
54190;DHT22;40340;53.208;6.582;2022-08-19T00:17:47;17.00;99.90
54190;DHT22;40340;53.208;6.582;2022-08-19T00:20:18;17.00;99.90
54190;DHT22;40340;53.208;6.582;2022-08-19T00:22:45;17.00;99.90
54190;DHT22;40340;53.208;6.582;2022-08-19T00:25:13;17.00;99.90
54190;DHT22;40340;53.208;6.582;2022-08-19T00:27:39;17.00;99.90
54190;DHT22;40340;53.208;6.582;2022-08-19T00:30:06;16.90;99.90
54190;DHT22;40340;53.208;6.582;2022-08-19T00:32:32;17.10;99.90
54190;DHT22;40340;53.208;6.582;2022-08-19T00:35:00;16.90;99.90
54190;DHT22;40340;53.208;6.582;2022-08-19T00:37:25;16.90;99.90
54190;DHT22;40340;53.208;6.582;2022-08-19T00:39:52;16.80;99.90
54190;DHT22;40340;53.208;6.582;2022-08-19T00:42:20;16.80;99.90
54190;DHT22;40340;53.208;6.582;2022-08-19T00:44:46;16.80;99.90
54190;DHT22;40340;53.208;6.582;2022-08-19T00:47:11;16.80;99.90
54190;DHT22;40340;53.208;6.582;2022-08-19T00:49:45;16.80;99.90
54190;DHT22;40340;53.208;6.582;2022-08-19T00:52:15;16.80;99.90
54190;DHT22;40340;53.208;6.582;2022-08-19T00:54:42;16.80;99.90
54190;DHT22;40340;53.208;6.582;2022-08-19T00:57:12;16.70;99.90
54190;DHT22;40340;53.208;6.582;2022-08-19T00:59:41;16.70;99.90
54190;DHT22;40340;53.208;6.582;2022-08-19T01:02:08;16.70;99.90
54190;DHT22;40340;53.208;6.582;2022-08-19T01:04:34;16.70;99.90
54190;DHT22;40340;53.208;6.582;2022-08-19T01:06:59;16.70;99.90
54190;DHT22;40340;53.208;6.582;2022-08-19T01:09:26;16.70;99.90
54190;DHT22;40340;53.208;6.582;2022-08-19T01:11:52;16.70;99.90
54190;DHT22;40340;53.208;6.582;2022-08-19T01:14:18;16.60;99.90
54190;DHT22;40340;53.208;6.582;2022-08-19T01:16:45;16.60;99.90
54190;DHT22;40340;53.208;6.582;2022-08-19T01:19:32;16.60;99.90
54190;DHT22;40340;53.208;6.582;2022-08-19T01:22:12;16.60;99.90
54190;DHT22;40340;53.208;6.582;2022-08-19T01:24:40;16.60;99.90
54190;DHT22;40340;53.208;6.582;2022-08-19T01:27:06;16.50;99.90
54190;DHT22;40340;53.208;6.582;2022-08-19T01:29:32;16.50;99.90
54190;DHT22;40340;53.208;6.582;2022-08-19T01:31:59;16.60;99.90
54190;DHT22;40340;53.208;6.582;2022-08-19T01:34:26;16.50;99.90
54190;DHT22;40340;53.208;6.582;2022-08-19T01:36:51;16.50;99.90
54190;DHT22;40340;53.208;6.582;2022-08-19T01:39:21;16.50;99.90
54190;DHT22;40340;53.208;6.582;2022-08-19T01:41:48;16.50;99.90
54190;DHT22;40340;53.208;6.582;2022-08-19T01:44:14;16.60;99.90
54190;DHT22;40340;53.208;6.582;2022-08-19T01:46:41;16.50;99.90
54190;DHT22;40340;53.208;6.582;2022-08-19T01:49:08;16.50;99.90
54190;DHT22;40340;53.208;6.582;2022-08-19T01:51:34;16.50;99.90
54190;DHT22;40340;53.208;6.582;2022-08-19T01:54:00;16.50;99.90
54190;DHT22;40340;53.208;6.582;2022-08-19T01:56:26;16.50;99.90
54190;DHT22;40340;53.208;6.582;2022-08-19T01:59:06;16.40;99.90
54190;DHT22;40340;53.208;6.582;2022-08-19T02:01:33;16.40;99.90
54190;DHT22;40340;53.208;6.582;2022-08-19T02:04:00;16.40;99.90
54190;DHT22;40340;53.208;6.582;2022-08-19T02:06:29;16.40;99.90
54190;DHT22;40340;53.208;6.582;2022-08-19T02:08:55;16.40;99.90
54190;DHT22;40340;53.208;6.582;2022-08-19T02:11:23;16.50;99.90
54190;DHT22;40340;53.208;6.582;2022-08-19T02:13:52;16.40;99.90
54190;DHT22;40340;53.208;6.582;2022-08-19T02:16:19;16.40;99.90
54190;DHT22;40340;53.208;6.582;2022-08-19T02:18:46;16.40;99.90
54190;DHT22;40340;53.208;6.582;2022-08-19T02:21:17;16.30;99.90
54190;DHT22;40340;53.208;6.582;2022-08-19T02:23:43;16.30;99.90
54190;DHT22;40340;53.208;6.582;2022-08-19T02:26:10;16.30;99.90
54190;DHT22;40340;53.208;6.582;2022-08-19T02:28:36;16.30;99.90
54190;DHT22;40340;53.208;6.582;2022-08-19T02:31:02;16.30;99.90
54190;DHT22;40340;53.208;6.582;2022-08-19T02:33:28;16.30;99.90
54190;DHT22;40340;53.208;6.582;2022-08-19T02:35:54;16.30;99.90
54190;DHT22;40340;53.208;6.582;2022-08-19T02:38:20;16.30;99.90
54190;DHT22;40340;53.208;6.582;2022-08-19T02:40:54;16.20;99.90
54190;DHT22;40340;53.208;6.582;2022-08-19T02:43:21;16.20;99.90
54190;DHT22;40340;53.208;6.582;2022-08-19T02:45:47;16.20;99.90
54190;DHT22;40340;53.208;6.582;2022-08-19T02:48:18;16.20;99.90
54190;DHT22;40340;53.208;6.582;2022-08-19T02:50:45;16.10;99.90
54190;DHT22;40340;53.208;6.582;2022-08-19T02:53:11;16.10;99.90
54190;DHT22;40340;53.208;6.582;2022-08-19T02:55:43;16.10;99.90
54190;DHT22;40340;53.208;6.582;2022-08-19T02:58:09;16.10;99.90
54190;DHT22;40340;53.208;6.582;2022-08-19T03:00:35;16.10;99.90
54190;DHT22;40340;53.208;6.582;2022-08-19T03:03:01;16.10;99.90
54190;DHT22;40340;53.208;6.582;2022-08-19T03:05:27;16.10;99.90
54190;DHT22;40340;53.208;6.582;2022-08-19T03:07:53;16.10;99.90
54190;DHT22;40340;53.208;6.582;2022-08-19T03:10:18;16.10;99.90
54190;DHT22;40340;53.208;6.582;2022-08-19T03:12:44;16.00;99.90
54190;DHT22;40340;53.208;6.582;2022-08-19T03:15:11;16.00;99.90
54190;DHT22;40340;53.208;6.582;2022-08-19T03:17:37;16.00;99.90
54190;DHT22;40340;53.208;6.582;2022-08-19T03:20:03;16.00;99.90
54190;DHT22;40340;53.208;6.582;2022-08-19T03:22:29;16.00;99.90
54190;DHT22;40340;53.208;6.582;2022-08-19T03:24:55;15.90;99.90
54190;DHT22;40340;53.208;6.582;2022-08-19T03:27:21;15.90;99.90
54190;DHT22;40340;53.208;6.582;2022-08-19T03:29:47;15.90;99.90
54190;DHT22;40340;53.208;6.582;2022-08-19T03:32:13;15.90;99.90
54190;DHT22;40340;53.208;6.582;2022-08-19T03:34:39;15.90;99.90
54190;DHT22;40340;53.208;6.582;2022-08-19T03:37:08;15.80;99.90
54190;DHT22;40340;53.208;6.582;2022-08-19T03:39:36;15.80;99.90
54190;DHT22;40340;53.208;6.582;2022-08-19T03:42:02;15.80;99.90
54190;DHT22;40340;53.208;6.582;2022-08-19T03:44:29;15.80;99.90
54190;DHT22;40340;53.208;6.582;2022-08-19T03:46:57;15.80;99.90
54190;DHT22;40340;53.208;6.582;2022-08-19T03:49:26;15.80;99.90
54190;DHT22;40340;53.208;6.582;2022-08-19T03:51:53;15.80;99.90
54190;DHT22;40340;53.208;6.582;2022-08-19T03:54:19;15.80;99.90
54190;DHT22;40340;53.208;6.582;2022-08-19T03:56:48;15.80;99.90
54190;DHT22;40340;53.208;6.582;2022-08-19T03:59:18;15.80;99.90
54190;DHT22;40340;53.208;6.582;2022-08-19T04:01:44;15.80;99.90
54190;DHT22;40340;53.208;6.582;2022-08-19T04:04:09;16.00;99.90
54190;DHT22;40340;53.208;6.582;2022-08-19T04:06:36;15.80;99.90
54190;DHT22;40340;53.208;6.582;2022-08-19T04:09:05;15.80;99.90
54190;DHT22;40340;53.208;6.582;2022-08-19T04:11:35;15.80;99.90
54190;DHT22;40340;53.208;6.582;2022-08-19T04:14:01;15.80;99.90
54190;DHT22;40340;53.208;6.582;2022-08-19T04:16:28;15.80;99.90
54190;DHT22;40340;53.208;6.582;2022-08-19T04:18:54;15.80;99.90
54190;DHT22;40340;53.208;6.582;2022-08-19T04:21:22;15.80;99.90
54190;DHT22;40340;53.208;6.582;2022-08-19T04:23:48;15.80;99.90
54190;DHT22;40340;53.208;6.582;2022-08-19T04:26:16;15.80;99.90
54190;DHT22;40340;53.208;6.582;2022-08-19T04:28:43;15.70;99.90
54190;DHT22;40340;53.208;6.582;2022-08-19T04:31:14;15.70;99.90
54190;DHT22;40340;53.208;6.582;2022-08-19T04:33:40;15.70;99.90
54190;DHT22;40340;53.208;6.582;2022-08-19T04:36:06;15.70;99.90
54190;DHT22;40340;53.208;6.582;2022-08-19T04:38:33;15.60;99.90
54190;DHT22;40340;53.208;6.582;2022-08-19T04:40:58;15.60;99.90
54190;DHT22;40340;53.208;6.582;2022-08-19T04:43:44;15.60;99.90
54190;DHT22;40340;53.208;6.582;2022-08-19T04:46:13;15.60;99.90
54190;DHT22;40340;53.208;6.582;2022-08-19T04:48:39;15.60;99.90
54190;DHT22;40340;53.208;6.582;2022-08-19T04:51:07;15.60;99.90
54190;DHT22;40340;53.208;6.582;2022-08-19T04:53:36;15.60;99.90
54190;DHT22;40340;53.208;6.582;2022-08-19T04:56:09;15.60;99.90
54190;DHT22;40340;53.208;6.582;2022-08-19T04:58:36;15.60;99.90
54190;DHT22;40340;53.208;6.582;2022-08-19T05:01:03;15.60;99.90
54190;DHT22;40340;53.208;6.582;2022-08-19T05:03:29;15.60;99.90
54190;DHT22;40340;53.208;6.582;2022-08-19T05:06:04;15.60;99.90
54190;DHT22;40340;53.208;6.582;2022-08-19T05:08:33;15.60;99.90
54190;DHT22;40340;53.208;6.582;2022-08-19T05:10:59;15.70;99.90
54190;DHT22;40340;53.208;6.582;2022-08-19T05:13:25;15.70;99.90
54190;DHT22;40340;53.208;6.582;2022-08-19T05:15:59;15.70;99.90
54190;DHT22;40340;53.208;6.582;2022-08-19T05:18:25;15.80;99.90
54190;DHT22;40340;53.208;6.582;2022-08-19T05:21:14;15.80;99.90
54190;DHT22;40340;53.208;6.582;2022-08-19T05:23:58;15.90;99.90
54190;DHT22;40340;53.208;6.582;2022-08-19T05:26:25;15.90;99.90
54190;DHT22;40340;53.208;6.582;2022-08-19T05:28:54;16.00;99.90
54190;DHT22;40340;53.208;6.582;2022-08-19T05:31:21;16.10;99.90
54190;DHT22;40340;53.208;6.582;2022-08-19T05:33:46;16.10;99.90
54190;DHT22;40340;53.208;6.582;2022-08-19T05:36:12;16.10;99.90
54190;DHT22;40340;53.208;6.582;2022-08-19T05:38:39;16.20;99.90
54190;DHT22;40340;53.208;6.582;2022-08-19T05:41:12;16.30;99.90
54190;DHT22;40340;53.208;6.582;2022-08-19T05:43:38;16.30;99.90
54190;DHT22;40340;53.208;6.582;2022-08-19T05:46:05;16.40;99.90
54190;DHT22;40340;53.208;6.582;2022-08-19T05:48:34;16.40;99.90
54190;DHT22;40340;53.208;6.582;2022-08-19T05:51:04;16.50;99.90
54190;DHT22;40340;53.208;6.582;2022-08-19T05:53:32;16.60;99.90
54190;DHT22;40340;53.208;6.582;2022-08-19T05:55:57;16.60;99.90
54190;DHT22;40340;53.208;6.582;2022-08-19T05:58:23;16.60;99.90
54190;DHT22;40340;53.208;6.582;2022-08-19T06:00:50;16.70;99.90
54190;DHT22;40340;53.208;6.582;2022-08-19T06:03:15;16.70;99.90
54190;DHT22;40340;53.208;6.582;2022-08-19T06:05:41;16.80;99.90
54190;DHT22;40340;53.208;6.582;2022-08-19T06:08:07;16.90;99.90
54190;DHT22;40340;53.208;6.582;2022-08-19T06:10:33;16.90;99.90
54190;DHT22;40340;53.208;6.582;2022-08-19T06:12:58;17.00;99.90
54190;DHT22;40340;53.208;6.582;2022-08-19T06:15:24;17.10;99.90
54190;DHT22;40340;53.208;6.582;2022-08-19T06:17:53;17.10;99.90
54190;DHT22;40340;53.208;6.582;2022-08-19T06:20:19;17.20;99.90
54190;DHT22;40340;53.208;6.582;2022-08-19T06:22:47;17.30;99.90
54190;DHT22;40340;53.208;6.582;2022-08-19T06:25:15;17.30;99.90
54190;DHT22;40340;53.208;6.582;2022-08-19T06:27:41;17.30;99.90
54190;DHT22;40340;53.208;6.582;2022-08-19T06:30:07;17.40;99.90
54190;DHT22;40340;53.208;6.582;2022-08-19T06:32:33;17.50;99.90
54190;DHT22;40340;53.208;6.582;2022-08-19T06:34:59;17.50;99.90
54190;DHT22;40340;53.208;6.582;2022-08-19T06:37:24;17.60;99.90
54190;DHT22;40340;53.208;6.582;2022-08-19T06:39:50;17.70;99.90
54190;DHT22;40340;53.208;6.582;2022-08-19T06:42:16;17.70;99.90
54190;DHT22;40340;53.208;6.582;2022-08-19T06:44:46;17.80;99.90
54190;DHT22;40340;53.208;6.582;2022-08-19T06:47:16;17.90;99.90
54190;DHT22;40340;53.208;6.582;2022-08-19T06:49:42;18.00;99.90
54190;DHT22;40340;53.208;6.582;2022-08-19T06:52:08;18.00;99.90
54190;DHT22;40340;53.208;6.582;2022-08-19T06:54:34;18.10;99.90
54190;DHT22;40340;53.208;6.582;2022-08-19T06:57:02;18.20;99.90
54190;DHT22;40340;53.208;6.582;2022-08-19T06:59:29;18.30;99.90
54190;DHT22;40340;53.208;6.582;2022-08-19T07:01:56;18.30;99.90
54190;DHT22;40340;53.208;6.582;2022-08-19T07:04:30;18.40;99.90
54190;DHT22;40340;53.208;6.582;2022-08-19T07:07:02;18.50;99.90
54190;DHT22;40340;53.208;6.582;2022-08-19T07:09:28;18.60;99.90
54190;DHT22;40340;53.208;6.582;2022-08-19T07:11:55;18.70;99.90
54190;DHT22;40340;53.208;6.582;2022-08-19T07:14:23;18.80;99.90
54190;DHT22;40340;53.208;6.582;2022-08-19T07:16:51;18.90;99.90
54190;DHT22;40340;53.208;6.582;2022-08-19T07:19:19;18.90;99.90
54190;DHT22;40340;53.208;6.582;2022-08-19T07:21:46;19.00;99.90
54190;DHT22;40340;53.208;6.582;2022-08-19T07:24:12;19.10;99.90
54190;DHT22;40340;53.208;6.582;2022-08-19T07:26:41;19.20;99.90
54190;DHT22;40340;53.208;6.582;2022-08-19T07:29:07;19.20;99.90
54190;DHT22;40340;53.208;6.582;2022-08-19T07:31:33;19.30;99.90
54190;DHT22;40340;53.208;6.582;2022-08-19T07:34:04;19.40;99.90
54190;DHT22;40340;53.208;6.582;2022-08-19T07:36:34;19.50;99.90
54190;DHT22;40340;53.208;6.582;2022-08-19T07:39:07;19.50;99.90
54190;DHT22;40340;53.208;6.582;2022-08-19T07:41:34;19.70;99.90
54190;DHT22;40340;53.208;6.582;2022-08-19T07:44:00;19.70;99.90
54190;DHT22;40340;53.208;6.582;2022-08-19T07:46:31;19.70;99.90
54190;DHT22;40340;53.208;6.582;2022-08-19T07:48:56;19.80;99.90
54190;DHT22;40340;53.208;6.582;2022-08-19T07:51:23;19.80;99.90
54190;DHT22;40340;53.208;6.582;2022-08-19T07:53:49;19.90;99.90
54190;DHT22;40340;53.208;6.582;2022-08-19T07:56:18;20.00;99.90
54190;DHT22;40340;53.208;6.582;2022-08-19T07:58:45;20.00;99.90
54190;DHT22;40340;53.208;6.582;2022-08-19T08:01:15;20.10;99.90
54190;DHT22;40340;53.208;6.582;2022-08-19T08:03:42;20.10;99.90
54190;DHT22;40340;53.208;6.582;2022-08-19T08:06:27;20.20;99.90
54190;DHT22;40340;53.208;6.582;2022-08-19T08:09:12;20.20;99.90
54190;DHT22;40340;53.208;6.582;2022-08-19T08:11:47;20.40;99.90
54190;DHT22;40340;53.208;6.582;2022-08-19T08:14:22;20.50;99.90
54190;DHT22;40340;53.208;6.582;2022-08-19T08:16:48;20.60;99.90
54190;DHT22;40340;53.208;6.582;2022-08-19T08:19:15;20.70;99.90
54190;DHT22;40340;53.208;6.582;2022-08-19T08:21:42;20.80;99.90
54190;DHT22;40340;53.208;6.582;2022-08-19T08:24:08;20.80;99.90
54190;DHT22;40340;53.208;6.582;2022-08-19T08:26:34;20.90;99.90
54190;DHT22;40340;53.208;6.582;2022-08-19T08:29:00;20.90;99.90
54190;DHT22;40340;53.208;6.582;2022-08-19T08:31:26;21.10;99.90
54190;DHT22;40340;53.208;6.582;2022-08-19T08:33:51;21.10;99.90
54190;DHT22;40340;53.208;6.582;2022-08-19T08:36:17;21.20;99.90
54190;DHT22;40340;53.208;6.582;2022-08-19T08:38:44;21.30;99.90
54190;DHT22;40340;53.208;6.582;2022-08-19T08:41:37;21.30;99.90
54190;DHT22;40340;53.208;6.582;2022-08-19T08:44:05;21.40;99.90
54190;DHT22;40340;53.208;6.582;2022-08-19T08:46:37;21.60;99.90
54190;DHT22;40340;53.208;6.582;2022-08-19T08:52:22;21.70;99.90
54190;DHT22;40340;53.208;6.582;2022-08-19T08:54:51;21.90;99.90
54190;DHT22;40340;53.208;6.582;2022-08-19T08:59:53;22.00;99.90
54190;DHT22;40340;53.208;6.582;2022-08-19T09:02:20;22.10;99.90
54190;DHT22;40340;53.208;6.582;2022-08-19T09:04:46;22.00;99.90
54190;DHT22;40340;53.208;6.582;2022-08-19T09:07:42;22.10;99.90
54190;DHT22;40340;53.208;6.582;2022-08-19T09:15:54;22.40;99.90
54190;DHT22;40340;53.208;6.582;2022-08-19T09:18:22;22.50;99.90
54190;DHT22;40340;53.208;6.582;2022-08-19T09:20:48;22.70;99.90
54190;DHT22;40340;53.208;6.582;2022-08-19T09:23:14;22.90;99.90
54190;DHT22;40340;53.208;6.582;2022-08-19T09:25:40;23.40;99.90
54190;DHT22;40340;53.208;6.582;2022-08-19T09:28:06;24.30;99.90
54190;DHT22;40340;53.208;6.582;2022-08-19T09:30:36;24.90;99.90
54190;DHT22;40340;53.208;6.582;2022-08-19T09:33:04;25.50;99.90
54190;DHT22;40340;53.208;6.582;2022-08-19T09:35:30;26.10;99.90
54190;DHT22;40340;53.208;6.582;2022-08-19T09:37:57;26.20;99.90
54190;DHT22;40340;53.208;6.582;2022-08-19T09:40:23;26.70;99.90
54190;DHT22;40340;53.208;6.582;2022-08-19T09:42:49;27.00;99.90
54190;DHT22;40340;53.208;6.582;2022-08-19T09:45:16;26.30;99.90
54190;DHT22;40340;53.208;6.582;2022-08-19T09:47:42;26.80;99.90
54190;DHT22;40340;53.208;6.582;2022-08-19T09:50:09;27.10;99.90
54190;DHT22;40340;53.208;6.582;2022-08-19T09:52:34;27.50;99.90
54190;DHT22;40340;53.208;6.582;2022-08-19T09:55:07;27.80;99.90
54190;DHT22;40340;53.208;6.582;2022-08-19T09:57:33;27.90;99.90
54190;DHT22;40340;53.208;6.582;2022-08-19T09:59:59;28.50;99.90
54190;DHT22;40340;53.208;6.582;2022-08-19T10:02:24;28.80;99.90
54190;DHT22;40340;53.208;6.582;2022-08-19T10:04:51;29.00;99.90
54190;DHT22;40340;53.208;6.582;2022-08-19T10:07:36;29.00;99.90
54190;DHT22;40340;53.208;6.582;2022-08-19T10:10:04;29.00;99.90
54190;DHT22;40340;53.208;6.582;2022-08-19T10:12:31;29.40;99.90
54190;DHT22;40340;53.208;6.582;2022-08-19T10:14:58;29.00;99.90
54190;DHT22;40340;53.208;6.582;2022-08-19T10:17:23;28.80;99.90
54190;DHT22;40340;53.208;6.582;2022-08-19T10:19:51;28.70;99.90
54190;DHT22;40340;53.208;6.582;2022-08-19T10:22:17;28.90;99.90
54190;DHT22;40340;53.208;6.582;2022-08-19T10:24:43;29.30;99.90
54190;DHT22;40340;53.208;6.582;2022-08-19T10:27:09;29.70;99.90
54190;DHT22;40340;53.208;6.582;2022-08-19T10:29:35;29.60;99.00
54190;DHT22;40340;53.208;6.582;2022-08-19T10:32:02;29.20;97.50
54190;DHT22;40340;53.208;6.582;2022-08-19T10:34:28;28.70;98.80
54190;DHT22;40340;53.208;6.582;2022-08-19T10:36:55;28.60;98.70
54190;DHT22;40340;53.208;6.582;2022-08-19T10:39:21;28.40;99.60
54190;DHT22;40340;53.208;6.582;2022-08-19T10:41:47;28.30;99.90
54190;DHT22;40340;53.208;6.582;2022-08-19T10:44:13;27.60;99.10
54190;DHT22;40340;53.208;6.582;2022-08-19T10:46:42;27.00;99.90
54190;DHT22;40340;53.208;6.582;2022-08-19T10:49:09;26.60;99.90
54190;DHT22;40340;53.208;6.582;2022-08-19T10:51:36;26.80;99.90
54190;DHT22;40340;53.208;6.582;2022-08-19T10:54:21;27.40;99.90
54190;DHT22;40340;53.208;6.582;2022-08-19T10:56:46;27.90;99.90
54190;DHT22;40340;53.208;6.582;2022-08-19T10:59:27;28.00;99.90
54190;DHT22;40340;53.208;6.582;2022-08-19T11:01:53;28.30;99.90
54190;DHT22;40340;53.208;6.582;2022-08-19T11:04:20;28.60;99.90
54190;DHT22;40340;53.208;6.582;2022-08-19T11:06:47;28.70;99.80
54190;DHT22;40340;53.208;6.582;2022-08-19T11:09:18;28.70;99.90
54190;DHT22;40340;53.208;6.582;2022-08-19T11:11:44;29.00;99.90
54190;DHT22;40340;53.208;6.582;2022-08-19T11:14:13;28.90;99.20
54190;DHT22;40340;53.208;6.582;2022-08-19T11:16:40;29.40;99.80
54190;DHT22;40340;53.208;6.582;2022-08-19T11:19:07;29.60;99.20
54190;DHT22;40340;53.208;6.582;2022-08-19T11:21:39;29.80;99.00
54190;DHT22;40340;53.208;6.582;2022-08-19T11:24:10;29.70;99.00
54190;DHT22;40340;53.208;6.582;2022-08-19T11:26:36;30.10;99.20
54190;DHT22;40340;53.208;6.582;2022-08-19T11:29:04;30.40;98.80
54190;DHT22;40340;53.208;6.582;2022-08-19T11:31:33;30.90;98.20
54190;DHT22;40340;53.208;6.582;2022-08-19T11:34:00;31.00;97.40
54190;DHT22;40340;53.208;6.582;2022-08-19T11:36:27;30.40;96.50
54190;DHT22;40340;53.208;6.582;2022-08-19T11:38:53;30.00;96.70
54190;DHT22;40340;53.208;6.582;2022-08-19T11:41:21;29.80;96.70
54190;DHT22;40340;53.208;6.582;2022-08-19T11:43:48;29.40;97.40
54190;DHT22;40340;53.208;6.582;2022-08-19T11:46:15;29.20;97.40
54190;DHT22;40340;53.208;6.582;2022-08-19T11:48:41;28.70;97.60
54190;DHT22;40340;53.208;6.582;2022-08-19T11:51:12;28.60;97.30
54190;DHT22;40340;53.208;6.582;2022-08-19T11:53:39;28.30;97.50
54190;DHT22;40340;53.208;6.582;2022-08-19T11:56:05;28.20;98.00
54190;DHT22;40340;53.208;6.582;2022-08-19T11:58:31;27.90;98.80
54190;DHT22;40340;53.208;6.582;2022-08-19T12:00:57;27.90;99.00
54190;DHT22;40340;53.208;6.582;2022-08-19T12:03:23;27.70;98.60
54190;DHT22;40340;53.208;6.582;2022-08-19T12:05:49;27.70;99.10
54190;DHT22;40340;53.208;6.582;2022-08-19T12:08:15;27.70;99.50
54190;DHT22;40340;53.208;6.582;2022-08-19T12:10:41;27.90;99.50
54190;DHT22;40340;53.208;6.582;2022-08-19T12:13:09;27.80;99.20
54190;DHT22;40340;53.208;6.582;2022-08-19T12:15:39;27.70;99.10
54190;DHT22;40340;53.208;6.582;2022-08-19T12:18:07;27.50;99.30
54190;DHT22;40340;53.208;6.582;2022-08-19T12:20:38;27.60;99.50
54190;DHT22;40340;53.208;6.582;2022-08-19T12:23:06;27.30;99.30
54190;DHT22;40340;53.208;6.582;2022-08-19T12:25:32;27.30;99.60
54190;DHT22;40340;53.208;6.582;2022-08-19T12:27:59;27.40;99.70
54190;DHT22;40340;53.208;6.582;2022-08-19T12:30:25;27.40;99.90
54190;DHT22;40340;53.208;6.582;2022-08-19T12:32:51;27.50;99.90
54190;DHT22;40340;53.208;6.582;2022-08-19T12:35:17;27.40;99.90
54190;DHT22;40340;53.208;6.582;2022-08-19T12:37:46;27.20;99.80
54190;DHT22;40340;53.208;6.582;2022-08-19T12:40:13;27.20;99.90
54190;DHT22;40340;53.208;6.582;2022-08-19T12:42:39;26.90;99.70
54190;DHT22;40340;53.208;6.582;2022-08-19T12:45:10;27.10;99.90
54190;DHT22;40340;53.208;6.582;2022-08-19T12:47:36;27.20;99.60
54190;DHT22;40340;53.208;6.582;2022-08-19T12:50:02;27.30;99.90
54190;DHT22;40340;53.208;6.582;2022-08-19T12:52:28;27.50;99.90
54190;DHT22;40340;53.208;6.582;2022-08-19T12:54:56;27.40;99.80
54190;DHT22;40340;53.208;6.582;2022-08-19T12:57:27;27.40;99.80
54190;DHT22;40340;53.208;6.582;2022-08-19T12:59:53;27.50;99.90
54190;DHT22;40340;53.208;6.582;2022-08-19T13:02:19;27.50;99.90
54190;DHT22;40340;53.208;6.582;2022-08-19T13:04:45;27.60;99.90
54190;DHT22;40340;53.208;6.582;2022-08-19T13:07:10;27.60;99.10
54190;DHT22;40340;53.208;6.582;2022-08-19T13:09:36;27.40;99.40
54190;DHT22;40340;53.208;6.582;2022-08-19T13:12:03;27.30;99.60
54190;DHT22;40340;53.208;6.582;2022-08-19T13:14:33;27.20;99.80
54190;DHT22;40340;53.208;6.582;2022-08-19T13:16:58;27.00;99.90
54190;DHT22;40340;53.208;6.582;2022-08-19T13:19:24;27.00;99.90
54190;DHT22;40340;53.208;6.582;2022-08-19T13:21:51;26.80;99.90
54190;DHT22;40340;53.208;6.582;2022-08-19T13:24:17;26.80;99.90
54190;DHT22;40340;53.208;6.582;2022-08-19T13:26:43;26.90;99.90
54190;DHT22;40340;53.208;6.582;2022-08-19T13:29:09;27.40;99.90
54190;DHT22;40340;53.208;6.582;2022-08-19T13:31:53;27.80;99.90
54190;DHT22;40340;53.208;6.582;2022-08-19T13:34:37;28.00;99.90
54190;DHT22;40340;53.208;6.582;2022-08-19T13:37:05;27.70;99.90
54190;DHT22;40340;53.208;6.582;2022-08-19T13:39:31;27.50;99.90
54190;DHT22;40340;53.208;6.582;2022-08-19T13:41:58;27.30;99.90
54190;DHT22;40340;53.208;6.582;2022-08-19T13:44:27;27.10;99.90
54190;DHT22;40340;53.208;6.582;2022-08-19T13:47:00;27.20;99.90
54190;DHT22;40340;53.208;6.582;2022-08-19T13:49:28;26.80;99.90
54190;DHT22;40340;53.208;6.582;2022-08-19T13:51:55;26.50;99.90
54190;DHT22;40340;53.208;6.582;2022-08-19T13:54:20;26.50;99.90
54190;DHT22;40340;53.208;6.582;2022-08-19T13:56:47;26.30;99.90
54190;DHT22;40340;53.208;6.582;2022-08-19T13:59:12;25.90;99.90
54190;DHT22;40340;53.208;6.582;2022-08-19T14:01:39;25.70;99.90
54190;DHT22;40340;53.208;6.582;2022-08-19T14:04:05;25.50;99.90
54190;DHT22;40340;53.208;6.582;2022-08-19T14:06:31;25.60;99.90
54190;DHT22;40340;53.208;6.582;2022-08-19T14:08:57;25.50;99.90
54190;DHT22;40340;53.208;6.582;2022-08-19T14:11:22;25.50;99.90
54190;DHT22;40340;53.208;6.582;2022-08-19T14:13:49;25.70;99.90
54190;DHT22;40340;53.208;6.582;2022-08-19T14:16:15;25.50;99.90
54190;DHT22;40340;53.208;6.582;2022-08-19T14:18:41;25.50;99.90
54190;DHT22;40340;53.208;6.582;2022-08-19T14:21:08;25.40;99.90
54190;DHT22;40340;53.208;6.582;2022-08-19T14:23:38;25.60;99.90
54190;DHT22;40340;53.208;6.582;2022-08-19T14:26:13;25.50;99.90
54190;DHT22;40340;53.208;6.582;2022-08-19T14:28:40;25.30;99.90
54190;DHT22;40340;53.208;6.582;2022-08-19T14:31:08;25.20;99.90
54190;DHT22;40340;53.208;6.582;2022-08-19T14:33:33;25.10;99.90
54190;DHT22;40340;53.208;6.582;2022-08-19T14:35:59;25.10;99.90
54190;DHT22;40340;53.208;6.582;2022-08-19T14:38:25;25.20;99.90
54190;DHT22;40340;53.208;6.582;2022-08-19T14:40:52;25.30;99.90
54190;DHT22;40340;53.208;6.582;2022-08-19T14:43:18;25.20;99.90
54190;DHT22;40340;53.208;6.582;2022-08-19T14:45:44;25.30;99.90
54190;DHT22;40340;53.208;6.582;2022-08-19T14:48:09;25.30;99.90
54190;DHT22;40340;53.208;6.582;2022-08-19T14:50:35;25.30;99.90
54190;DHT22;40340;53.208;6.582;2022-08-19T14:53:07;25.30;99.90
54190;DHT22;40340;53.208;6.582;2022-08-19T14:55:33;25.50;99.90
54190;DHT22;40340;53.208;6.582;2022-08-19T14:57:59;25.60;99.90
54190;DHT22;40340;53.208;6.582;2022-08-19T15:00:25;25.60;99.90
54190;DHT22;40340;53.208;6.582;2022-08-19T15:02:51;25.60;99.90
54190;DHT22;40340;53.208;6.582;2022-08-19T15:05:16;25.60;99.90
54190;DHT22;40340;53.208;6.582;2022-08-19T15:07:43;25.50;99.90
54190;DHT22;40340;53.208;6.582;2022-08-19T15:10:11;25.30;99.90
54190;DHT22;40340;53.208;6.582;2022-08-19T15:12:38;25.60;99.90
54190;DHT22;40340;53.208;6.582;2022-08-19T15:15:07;25.70;99.90
54190;DHT22;40340;53.208;6.582;2022-08-19T15:17:33;25.80;99.90
54190;DHT22;40340;53.208;6.582;2022-08-19T15:19:58;25.80;99.90
54190;DHT22;40340;53.208;6.582;2022-08-19T15:22:24;25.90;99.90
54190;DHT22;40340;53.208;6.582;2022-08-19T15:24:49;25.80;99.90
54190;DHT22;40340;53.208;6.582;2022-08-19T15:27:15;25.70;99.90
54190;DHT22;40340;53.208;6.582;2022-08-19T15:29:41;25.70;99.90
54190;DHT22;40340;53.208;6.582;2022-08-19T15:32:07;25.60;99.90
54190;DHT22;40340;53.208;6.582;2022-08-19T15:34:34;25.50;99.90
54190;DHT22;40340;53.208;6.582;2022-08-19T15:37:00;25.50;99.90
54190;DHT22;40340;53.208;6.582;2022-08-19T15:39:26;25.60;99.90
54190;DHT22;40340;53.208;6.582;2022-08-19T15:41:52;25.60;99.90
54190;DHT22;40340;53.208;6.582;2022-08-19T15:44:19;25.60;99.90